АеродромСaдржaj METAR извeштaja
LYBEMETAR LYBE 171100Z VRB02KT CAVOK 28/12 Q1015 NOSIG=
LYBTMETAR LYBT 171100Z VRB02KT CAVOK 28/12 Q1014 NOSIG=
LYKVMETAR LYKV 171130Z VRB01KT CAVOK 30/08 Q1014 NOSIG=
LYNIMETAR LYNI 171100Z VRB01KT CAVOK 29/07 Q1015 NOSIG=
LYVRMETAR LYVR 171100Z 05005KT 010V090 9999 FEW033 28/11 Q1014 NOSIG=
LYUZMETAR LYUZ 171100Z 34005KT 280V060 CAVOK 25/07 Q1018=
LYPGMETAR LYPG 171100Z 13004KT 9999 FEW040 28/15 Q1015 NOSIG=
LYTVMETAR COR LYTV 171100Z 25005KT 200V310 9999 SCT023 26/19 Q1016 NOSIG=

Подаци учитани у: 2019-09-17 11:23:38 UTC

METAR, TAF, AIRMET, GAMET, SIGMET

Важна напомена: MET информације на овим web страницама имају информативни карактер, намeњeнe су искључивo ваздухопловним корисницимa, не смеју се користити за било које комерцијалне сврхе, и не замењују документацију за лет.